Eden Mills, Vermont
Current Conditions -  °F | °C
As of 10:54 AM on Wednesday 22 Oct 2014 (Local Time) from KMVL Reporting Station
Overcast Overcast  
Wind Chill: 44°   Ceiling: 1400
Heat Index: 47°   Visibility: 10mi
Dew Point: 44°   Wind: 7mph
Humidity: 90%   Direction: 350°N
Pressure: 30.21"   Gusts: NA
Location:  44.71°N, 72.55°W
Report Text: KMVL 221454Z AUTO 35006KT 10SM OVC014 08/07 A3021 RMK AO2 SLP234 60001 T00830067 50002
Loading
Personal Weather Stations






























Interactive Weather Map
Tropical Storm Tracking
New forecast layout! Learn more

10-Day Weather Forecast

Advertisements
Track Severe Weather on mobile